createdAt,value
2019-01-20T00:02:18.682Z,3.43
2019-01-20T00:04:47.091Z,3.50
2019-01-20T00:07:16.188Z,3.50
2019-01-20T00:09:43.850Z,3.47
2019-01-20T00:12:12.647Z,3.70
2019-01-20T00:14:39.376Z,3.20
2019-01-20T00:17:06.022Z,3.57
2019-01-20T00:19:34.804Z,3.40
2019-01-20T00:22:03.625Z,3.20
2019-01-20T00:24:32.233Z,3.00
2019-01-20T00:27:00.349Z,2.93
2019-01-20T00:29:27.046Z,2.70
2019-01-20T00:31:53.987Z,2.60
2019-01-20T00:34:20.830Z,2.87
2019-01-20T00:36:49.064Z,3.20
2019-01-20T00:39:19.423Z,2.93
2019-01-20T00:41:46.338Z,2.90
2019-01-20T00:44:15.475Z,3.03
2019-01-20T00:46:42.370Z,2.80
2019-01-20T00:49:09.826Z,3.20
2019-01-20T00:51:36.882Z,2.97
2019-01-20T00:54:03.825Z,3.13
2019-01-20T00:56:30.776Z,3.00
2019-01-20T00:58:58.023Z,3.33
2019-01-20T01:01:24.694Z,3.00
2019-01-20T01:03:53.490Z,2.83
2019-01-20T01:06:26.278Z,2.67
2019-01-20T01:08:55.346Z,2.83
2019-01-20T01:11:23.412Z,2.87
2019-01-20T01:13:53.734Z,3.33
2019-01-20T01:16:25.511Z,2.97
2019-01-20T01:18:54.360Z,3.10
2019-01-20T01:21:23.146Z,3.13
2019-01-20T01:23:54.161Z,3.10
2019-01-20T01:26:21.675Z,2.90
2019-01-20T01:28:52.602Z,2.80
2019-01-20T01:31:20.620Z,2.87
2019-01-20T01:33:49.160Z,2.40
2019-01-20T01:36:16.089Z,2.83
2019-01-20T01:38:45.855Z,2.67
2019-01-20T01:41:13.251Z,2.43
2019-01-20T01:43:43.517Z,2.27
2019-01-20T01:46:10.937Z,2.73
2019-01-20T01:48:37.778Z,2.77
2019-01-20T01:51:07.198Z,3.20
2019-01-20T01:53:37.453Z,2.70
2019-01-20T01:56:08.412Z,2.80
2019-01-20T01:58:40.349Z,2.40
2019-01-20T02:01:08.840Z,2.93
2019-01-20T02:03:39.159Z,2.77
2019-01-20T02:06:08.927Z,2.63
2019-01-20T02:08:36.253Z,2.50
2019-01-20T02:11:05.272Z,2.73
2019-01-20T02:13:32.533Z,2.83
2019-01-20T02:16:03.177Z,2.80
2019-01-20T02:18:35.056Z,3.03
2019-01-20T02:21:03.684Z,2.50
2019-01-20T02:23:32.858Z,2.83
2019-01-20T02:26:01.115Z,2.60
2019-01-20T02:28:30.606Z,2.73
2019-01-20T02:30:57.320Z,2.93
2019-01-20T02:33:24.010Z,2.40
2019-01-20T02:35:50.798Z,3.20
2019-01-20T02:38:17.539Z,3.20
2019-01-20T02:40:44.281Z,3.00
2019-01-20T02:43:11.021Z,2.30
2019-01-20T02:45:37.761Z,2.63
2019-01-20T02:48:04.445Z,2.80
2019-01-20T02:50:30.987Z,2.80
2019-01-20T02:52:57.675Z,2.27
2019-01-20T02:55:24.319Z,2.43
2019-01-20T02:57:51.057Z,2.93
2019-01-20T03:00:19.639Z,2.23
2019-01-20T03:02:46.483Z,2.60
2019-01-20T03:05:13.545Z,2.50
2019-01-20T03:07:40.275Z,2.50
2019-01-20T03:10:10.855Z,2.30
2019-01-20T03:12:37.591Z,2.20
2019-01-20T03:15:05.611Z,2.40
2019-01-20T03:17:32.301Z,2.50
2019-01-20T03:19:59.099Z,2.53
2019-01-20T03:22:25.837Z,2.33
2019-01-20T03:24:53.665Z,2.73
2019-01-20T03:27:24.967Z,2.90
2019-01-20T03:29:51.904Z,2.40
2019-01-20T03:32:20.377Z,2.37
2019-01-20T03:34:48.414Z,2.47
2019-01-20T03:37:16.885Z,2.60
2019-01-20T03:39:44.601Z,2.60
2019-01-20T03:42:12.376Z,2.27
2019-01-20T03:44:39.105Z,2.80
2019-01-20T03:47:07.155Z,2.33
2019-01-20T03:49:35.589Z,2.10
2019-01-20T03:52:04.679Z,2.27
2019-01-20T03:54:37.732Z,2.37
2019-01-20T03:57:05.068Z,2.50
2019-01-20T03:59:32.952Z,2.33
2019-01-20T04:02:07.003Z,2.47
2019-01-20T04:04:35.978Z,2.50
2019-01-20T04:07:02.799Z,2.47
2019-01-20T04:09:31.331Z,2.50
2019-01-20T04:12:03.155Z,2.50
2019-01-20T04:14:31.901Z,2.47
2019-01-20T04:17:05.733Z,2.53
2019-01-20T04:19:34.292Z,2.83
2019-01-20T04:22:04.965Z,2.80
2019-01-20T04:24:33.524Z,2.60
2019-01-20T04:27:03.338Z,2.37
2019-01-20T04:29:34.041Z,2.27
2019-01-20T04:32:03.719Z,2.53
2019-01-20T04:34:33.239Z,2.50
2019-01-20T04:37:01.854Z,2.73
2019-01-20T04:39:36.714Z,2.40
2019-01-20T04:42:05.096Z,2.60
2019-01-20T04:44:37.129Z,2.30
2019-01-20T04:47:06.883Z,2.90
2019-01-20T04:49:33.712Z,2.60
2019-01-20T04:52:01.680Z,2.40
2019-01-20T04:54:30.663Z,2.30
2019-01-20T04:57:00.440Z,2.67
2019-01-20T04:59:28.027Z,2.40
2019-01-20T05:01:56.651Z,2.60
2019-01-20T05:04:26.898Z,2.37
2019-01-20T05:06:56.359Z,2.63
2019-01-20T05:09:25.363Z,2.47
2019-01-20T05:11:52.353Z,2.30
2019-01-20T05:14:19.650Z,2.37
2019-01-20T05:16:47.355Z,2.10
2019-01-20T05:19:20.156Z,3.00
2019-01-20T05:21:51.267Z,2.43
2019-01-20T05:24:23.634Z,2.80
2019-01-20T05:26:50.883Z,2.63
2019-01-20T05:29:19.638Z,2.67
2019-01-20T05:31:46.306Z,2.20
2019-01-20T05:34:13.037Z,2.80
2019-01-20T05:36:39.674Z,3.07
2019-01-20T05:39:07.956Z,2.90
2019-01-20T05:41:35.309Z,2.77
2019-01-20T05:44:02.664Z,2.37
2019-01-20T05:46:30.424Z,2.93
2019-01-20T05:48:57.269Z,3.03
2019-01-20T05:51:25.066Z,2.60
2019-01-20T05:53:54.558Z,3.00
2019-01-20T05:56:22.614Z,2.70
2019-01-20T05:58:50.603Z,2.53
2019-01-20T06:01:18.730Z,2.77
2019-01-20T06:03:46.661Z,3.20
2019-01-20T06:06:14.263Z,2.53
2019-01-20T06:08:40.733Z,2.80
2019-01-20T06:11:10.663Z,2.80
2019-01-20T06:13:38.486Z,2.37
2019-01-20T06:16:05.442Z,2.33
2019-01-20T06:18:35.432Z,3.43
2019-01-20T06:21:04.056Z,3.67
2019-01-20T06:23:32.771Z,2.80
2019-01-20T06:26:01.381Z,3.20
2019-01-20T06:28:29.107Z,3.03
2019-01-20T06:30:56.451Z,3.30
2019-01-20T06:33:24.639Z,2.87
2019-01-20T06:35:52.289Z,2.40
2019-01-20T06:38:20.767Z,3.07
2019-01-20T06:40:49.180Z,2.70
2019-01-20T06:43:16.751Z,2.97
2019-01-20T06:45:44.767Z,2.80
2019-01-20T06:48:13.212Z,2.70
2019-01-20T06:50:41.500Z,3.33
2019-01-20T06:53:10.095Z,3.40
2019-01-20T06:55:38.167Z,3.10
2019-01-20T06:58:04.921Z,3.47
2019-01-20T07:00:36.565Z,3.83
2019-01-20T07:03:06.000Z,3.40
2019-01-20T07:05:36.743Z,3.47
2019-01-20T07:08:03.413Z,3.77
2019-01-20T07:10:31.759Z,3.00
2019-01-20T07:13:00.051Z,4.00
2019-01-20T07:15:27.656Z,4.43
2019-01-20T07:17:56.152Z,4.17
2019-01-20T07:20:23.640Z,4.00
2019-01-20T07:22:55.573Z,3.93
2019-01-20T07:25:22.530Z,4.03
2019-01-20T07:27:50.245Z,3.90
2019-01-20T07:30:21.236Z,3.60
2019-01-20T07:32:49.416Z,3.80
2019-01-20T07:35:19.621Z,3.77
2019-01-20T07:38:06.250Z,3.60
2019-01-20T07:40:33.257Z,3.60
2019-01-20T07:42:59.952Z,4.10
2019-01-20T07:45:26.548Z,3.43
2019-01-20T07:47:53.119Z,3.50
2019-01-20T07:50:20.580Z,3.43
2019-01-20T07:52:47.319Z,3.50
2019-01-20T07:55:14.056Z,3.53
2019-01-20T07:57:40.797Z,3.90
2019-01-20T08:00:09.278Z,3.47
2019-01-20T08:02:35.919Z,4.50
2019-01-20T08:05:02.517Z,4.90
2019-01-20T08:07:29.296Z,4.70
2019-01-20T08:09:55.968Z,6.00
2019-01-20T08:12:23.634Z,5.03
2019-01-20T08:14:50.443Z,4.50
2019-01-20T08:17:17.176Z,4.13
2019-01-20T08:19:43.919Z,3.93
2019-01-20T08:22:10.762Z,5.07
2019-01-20T08:24:38.628Z,5.40
2019-01-20T08:27:05.173Z,8.97
2019-01-20T08:29:31.901Z,11.83
2019-01-20T08:31:58.752Z,6.93
2019-01-20T08:34:25.495Z,14.03
2019-01-20T08:36:52.122Z,8.30
2019-01-20T08:39:19.173Z,16.17
2019-01-20T08:41:45.845Z,10.20
2019-01-20T08:44:12.656Z,6.40
2019-01-20T08:46:40.917Z,6.50
2019-01-20T08:49:07.674Z,5.87
2019-01-20T08:51:34.412Z,6.27
2019-01-20T08:54:01.161Z,4.77
2019-01-20T08:56:27.686Z,8.30
2019-01-20T08:58:54.427Z,5.20
2019-01-20T09:01:21.167Z,4.90
2019-01-20T09:03:47.908Z,4.77
2019-01-20T09:06:14.651Z,5.00
2019-01-20T09:08:41.290Z,4.93
2019-01-20T09:11:08.025Z,5.00
2019-01-20T09:13:39.638Z,5.03
2019-01-20T09:16:03.556Z,5.23
2019-01-20T09:18:30.399Z,5.10
2019-01-20T09:20:57.139Z,5.17
2019-01-20T09:23:23.753Z,4.80
2019-01-20T09:25:50.420Z,5.37
2019-01-20T09:28:20.079Z,4.87
2019-01-20T09:30:47.806Z,4.60
2019-01-20T09:33:24.302Z,4.57
2019-01-20T09:35:44.751Z,5.13
2019-01-20T09:38:11.591Z,4.63
2019-01-20T09:40:38.538Z,4.47
2019-01-20T09:43:05.280Z,4.90
2019-01-20T09:45:32.326Z,4.53
2019-01-20T09:47:58.913Z,4.10
2019-01-20T09:50:25.444Z,3.80
2019-01-20T09:52:53.884Z,4.07
2019-01-20T09:55:20.723Z,4.87
2019-01-20T09:57:47.563Z,4.73
2019-01-20T10:00:15.434Z,3.77
2019-01-20T10:02:42.294Z,3.83
2019-01-20T10:05:09.326Z,3.60
2019-01-20T10:07:35.961Z,3.47
2019-01-20T10:10:02.909Z,2.80
2019-01-20T10:12:29.547Z,2.83
2019-01-20T10:14:56.148Z,2.87
2019-01-20T10:17:22.876Z,2.90
2019-01-20T10:19:49.563Z,2.67
2019-01-20T10:22:16.199Z,3.10
2019-01-20T10:24:43.861Z,3.20
2019-01-20T10:27:12.993Z,3.50
2019-01-20T10:29:39.697Z,2.90
2019-01-20T10:32:06.233Z,3.10
2019-01-20T10:34:33.282Z,3.20
2019-01-20T10:37:00.840Z,2.90
2019-01-20T10:39:27.683Z,2.93
2019-01-20T10:41:54.425Z,2.83
2019-01-20T10:44:21.269Z,2.70
2019-01-20T10:46:48.110Z,2.80
2019-01-20T10:49:14.852Z,3.40
2019-01-20T10:51:41.590Z,3.50
2019-01-20T10:54:08.441Z,3.47
2019-01-20T10:56:35.011Z,3.40
2019-01-20T10:59:03.399Z,3.70
2019-01-20T11:01:30.194Z,3.03
2019-01-20T11:03:56.801Z,3.60
2019-01-20T11:06:23.537Z,3.00
2019-01-20T11:08:50.314Z,2.57
2019-01-20T11:11:16.785Z,2.60
2019-01-20T11:13:43.483Z,2.70
2019-01-20T11:16:10.224Z,2.80
2019-01-20T11:18:36.964Z,3.10
2019-01-20T11:21:03.606Z,2.77
2019-01-20T11:23:30.654Z,3.10
2019-01-20T11:25:57.075Z,3.93
2019-01-20T11:28:24.456Z,2.87
2019-01-20T11:30:51.285Z,2.90
2019-01-20T11:33:18.024Z,2.30
2019-01-20T11:35:44.867Z,3.03
2019-01-20T11:38:11.608Z,3.33
2019-01-20T11:40:38.346Z,3.10
2019-01-20T11:43:05.087Z,2.43
2019-01-20T11:45:31.533Z,2.70
2019-01-20T11:47:58.162Z,2.87
2019-01-20T11:50:24.902Z,2.70
2019-01-20T11:52:51.539Z,2.80
2019-01-20T11:55:19.404Z,3.53
2019-01-20T11:57:46.268Z,2.90
2019-01-20T12:00:14.775Z,2.97
2019-01-20T12:02:41.472Z,2.80
2019-01-20T12:05:09.270Z,2.83
2019-01-20T12:07:36.110Z,3.10
2019-01-20T12:10:03.845Z,2.63
2019-01-20T12:12:30.739Z,2.40
2019-01-20T12:14:57.303Z,3.10
2019-01-20T12:17:24.989Z,33.60
2019-01-20T12:19:51.830Z,4.47
2019-01-20T12:22:18.572Z,3.07
2019-01-20T12:24:45.357Z,2.30
2019-01-20T12:27:11.947Z,2.73
2019-01-20T12:29:38.538Z,2.47
2019-01-20T12:32:05.225Z,2.33
2019-01-20T12:34:32.058Z,2.40
2019-01-20T12:36:58.603Z,2.90
2019-01-20T12:39:25.241Z,2.50
2019-01-20T12:41:52.089Z,2.50
2019-01-20T12:44:18.826Z,2.63
2019-01-20T12:46:45.566Z,2.40
2019-01-20T12:49:12.306Z,2.20
2019-01-20T12:51:38.843Z,2.80
2019-01-20T12:54:05.478Z,2.80
2019-01-20T12:56:32.218Z,2.53
2019-01-20T12:58:58.758Z,2.20
2019-01-20T13:01:25.434Z,1.97
2019-01-20T13:03:52.136Z,2.10
2019-01-20T13:06:18.873Z,2.60
2019-01-20T13:08:45.630Z,2.57
2019-01-20T13:11:12.359Z,2.80
2019-01-20T13:13:39.011Z,2.30
2019-01-20T13:16:05.639Z,9.77
2019-01-20T13:18:32.378Z,2.23
2019-01-20T13:20:58.932Z,2.30
2019-01-20T13:23:25.756Z,2.60
2019-01-20T13:25:52.339Z,2.37
2019-01-20T13:28:19.028Z,2.70
2019-01-20T13:30:45.770Z,2.40
2019-01-20T13:33:12.406Z,2.60
2019-01-20T13:35:39.147Z,2.47
2019-01-20T13:38:07.320Z,3.07
2019-01-20T13:40:35.703Z,2.37
2019-01-20T13:43:02.475Z,2.70
2019-01-20T13:45:29.283Z,2.37
2019-01-20T13:47:56.027Z,2.23
2019-01-20T13:50:22.766Z,2.60
2019-01-20T13:52:49.608Z,2.67
2019-01-20T13:55:16.470Z,2.10
2019-01-20T13:57:43.194Z,2.20
2019-01-20T14:00:20.182Z,3.10
2019-01-20T14:02:46.856Z,3.03
2019-01-20T14:05:16.828Z,4.03
2019-01-20T14:07:43.443Z,4.03
2019-01-20T14:10:11.683Z,3.50
2019-01-20T14:12:38.589Z,3.50
2019-01-20T14:15:07.068Z,2.80
2019-01-20T14:17:33.909Z,3.23
2019-01-20T14:20:00.549Z,3.20
2019-01-20T14:22:27.056Z,3.97
2019-01-20T14:24:53.618Z,4.83
2019-01-20T14:27:20.359Z,4.90
2019-01-20T14:29:48.124Z,4.57
2019-01-20T14:32:14.866Z,7.30
2019-01-20T14:34:41.606Z,4.40
2019-01-20T14:37:08.243Z,6.20
2019-01-20T14:39:34.986Z,4.17
2019-01-20T14:42:01.931Z,6.10
2019-01-20T14:44:28.770Z,8.50
2019-01-20T14:46:55.409Z,4.97
2019-01-20T14:49:22.049Z,5.57
2019-01-20T14:51:48.788Z,5.27
2019-01-20T14:54:15.296Z,4.60
2019-01-20T14:56:41.963Z,6.87
2019-01-20T14:59:09.832Z,5.97
2019-01-20T15:01:36.672Z,5.07
2019-01-20T15:04:03.413Z,5.40
2019-01-20T15:06:30.154Z,6.10
2019-01-20T15:08:57.000Z,5.67
2019-01-20T15:11:23.624Z,5.63
2019-01-20T15:13:50.276Z,5.80
2019-01-20T15:16:17.063Z,7.10
2019-01-20T15:18:43.757Z,5.90
2019-01-20T15:21:10.494Z,4.90
2019-01-20T15:23:37.336Z,5.17
2019-01-20T15:26:04.076Z,5.93
2019-01-20T15:28:30.758Z,5.70
2019-01-20T15:30:57.455Z,4.90
2019-01-20T15:33:24.085Z,5.60
2019-01-20T15:35:50.683Z,5.27
2019-01-20T15:38:17.370Z,5.37
2019-01-20T15:40:44.216Z,5.70
2019-01-20T15:43:10.860Z,5.57
2019-01-20T15:45:37.597Z,5.20
2019-01-20T15:48:04.232Z,5.40
2019-01-20T15:50:31.413Z,5.10
2019-01-20T15:52:58.230Z,4.53
2019-01-20T15:55:24.967Z,4.60
2019-01-20T15:57:51.598Z,3.70
2019-01-20T16:00:19.266Z,3.90
2019-01-20T16:02:46.109Z,3.93
2019-01-20T16:05:12.850Z,8.57
2019-01-20T16:07:40.522Z,9.37
2019-01-20T16:10:08.997Z,9.93
2019-01-20T16:12:35.607Z,6.50
2019-01-20T16:15:02.488Z,6.07
2019-01-20T16:17:29.418Z,5.97
2019-01-20T16:19:56.468Z,5.53
2019-01-20T16:22:23.232Z,5.23
2019-01-20T16:24:49.951Z,5.33
2019-01-20T16:27:16.792Z,5.70
2019-01-20T16:29:43.472Z,5.53
2019-01-20T16:32:10.168Z,4.90
2019-01-20T16:34:36.808Z,7.00
2019-01-20T16:37:03.550Z,6.50
2019-01-20T16:39:30.395Z,6.00
2019-01-20T16:41:57.133Z,6.20
2019-01-20T16:44:23.809Z,5.70
2019-01-20T16:46:50.516Z,4.70
2019-01-20T16:49:18.880Z,6.10
2019-01-20T16:51:45.631Z,9.93
2019-01-20T16:54:12.610Z,7.13
2019-01-20T16:56:39.218Z,7.47
2019-01-20T16:59:05.955Z,6.03
2019-01-20T17:01:32.696Z,5.33
2019-01-20T17:04:00.462Z,5.83
2019-01-20T17:06:27.199Z,5.63
2019-01-20T17:08:53.838Z,7.07
2019-01-20T17:11:20.477Z,8.27
2019-01-20T17:13:47.221Z,6.37
2019-01-20T17:16:13.955Z,6.43
2019-01-20T17:18:40.700Z,7.30
2019-01-20T17:21:07.335Z,7.67
2019-01-20T17:23:34.077Z,7.43
2019-01-20T17:26:00.713Z,8.43
2019-01-20T17:28:27.176Z,6.23
2019-01-20T17:30:53.794Z,5.73
2019-01-20T17:33:20.426Z,5.00
2019-01-20T17:35:47.211Z,6.50
2019-01-20T17:38:14.010Z,16.27
2019-01-20T17:40:40.855Z,7.40
2019-01-20T17:43:07.803Z,7.93
2019-01-20T17:45:35.697Z,6.43
2019-01-20T17:48:02.417Z,5.57
2019-01-20T17:50:30.479Z,6.07
2019-01-20T17:52:57.120Z,7.50
2019-01-20T17:55:23.902Z,11.17
2019-01-20T17:57:50.698Z,12.00
2019-01-20T18:00:19.181Z,9.73
2019-01-20T18:02:45.759Z,13.10
2019-01-20T18:05:13.485Z,11.90
2019-01-20T18:07:40.323Z,8.50
2019-01-20T18:10:08.601Z,7.03
2019-01-20T18:12:35.447Z,7.57
2019-01-20T18:15:03.310Z,11.70
2019-01-20T18:17:30.049Z,6.23
2019-01-20T18:19:56.544Z,6.47
2019-01-20T18:22:23.225Z,6.97
2019-01-20T18:24:49.964Z,6.87
2019-01-20T18:27:16.673Z,7.03
2019-01-20T18:29:43.443Z,7.80
2019-01-20T18:32:10.185Z,8.43
2019-01-20T18:34:38.574Z,8.00
2019-01-20T18:37:05.138Z,7.93
2019-01-20T18:39:31.564Z,7.90
2019-01-20T18:41:58.273Z,8.10
2019-01-20T18:44:24.804Z,7.63
2019-01-20T18:46:51.435Z,7.90
2019-01-20T18:49:18.088Z,7.03
2019-01-20T18:51:44.824Z,6.80
2019-01-20T18:54:11.876Z,6.60
2019-01-20T18:56:38.660Z,6.10
2019-01-20T18:59:05.459Z,5.53
2019-01-20T19:01:32.201Z,5.20
2019-01-20T19:03:59.146Z,17.53
2019-01-20T19:06:25.885Z,9.73
2019-01-20T19:08:52.626Z,6.67
2019-01-20T19:11:19.365Z,6.60
2019-01-20T19:13:46.105Z,6.07
2019-01-20T19:16:12.850Z,6.30
2019-01-20T19:18:40.660Z,7.93
2019-01-20T19:21:07.261Z,7.83
2019-01-20T19:23:33.888Z,10.27
2019-01-20T19:26:00.564Z,7.20
2019-01-20T19:28:27.080Z,6.27
2019-01-20T19:30:53.703Z,7.17
2019-01-20T19:33:20.442Z,8.33
2019-01-20T19:35:47.392Z,7.10
2019-01-20T19:38:14.126Z,6.40
2019-01-20T19:40:40.868Z,6.43
2019-01-20T19:43:07.709Z,7.10
2019-01-20T19:45:34.652Z,5.60
2019-01-20T19:48:01.394Z,5.00
2019-01-20T19:50:28.074Z,5.30
2019-01-20T19:52:54.777Z,4.80
2019-01-20T19:55:25.714Z,5.50
2019-01-20T19:57:52.456Z,5.33
2019-01-20T20:00:20.217Z,5.67
2019-01-20T20:02:46.912Z,5.93
2019-01-20T20:05:14.657Z,6.27
2019-01-20T20:07:41.568Z,6.93
2019-01-20T20:10:09.505Z,6.40
2019-01-20T20:12:36.380Z,7.63
2019-01-20T20:15:04.248Z,7.43
2019-01-20T20:17:31.190Z,7.10
2019-01-20T20:19:59.672Z,6.97
2019-01-20T20:22:26.517Z,6.63
2019-01-20T20:24:53.973Z,6.97
2019-01-20T20:27:21.514Z,6.07
2019-01-20T20:29:49.093Z,6.33
2019-01-20T20:32:17.575Z,6.50
2019-01-20T20:34:44.623Z,7.20
2019-01-20T20:37:11.491Z,6.60
2019-01-20T20:39:38.935Z,7.23
2019-01-20T20:42:05.822Z,8.47
2019-01-20T20:44:32.703Z,6.77
2019-01-20T20:46:59.573Z,5.83
2019-01-20T20:49:26.807Z,6.20
2019-01-20T20:51:54.262Z,6.50
2019-01-20T20:54:21.429Z,5.70
2019-01-20T20:56:50.420Z,5.80
2019-01-20T20:59:17.965Z,5.60
2019-01-20T21:01:45.533Z,5.17
2019-01-20T21:04:12.904Z,7.07
2019-01-20T21:06:40.238Z,7.10
2019-01-20T21:09:07.493Z,6.97
2019-01-20T21:11:36.168Z,6.67
2019-01-20T21:14:03.426Z,6.30
2019-01-20T21:16:30.271Z,6.60
2019-01-20T21:18:57.222Z,5.77
2019-01-20T21:21:26.779Z,5.57
2019-01-20T21:23:53.669Z,5.70
2019-01-20T21:26:20.407Z,6.07
2019-01-20T21:28:47.146Z,6.03
2019-01-20T21:31:13.786Z,6.20
2019-01-20T21:33:40.422Z,6.37
2019-01-20T21:36:07.163Z,5.73
2019-01-20T21:38:33.800Z,6.10
2019-01-20T21:41:00.545Z,7.10
2019-01-20T21:43:27.197Z,7.30
2019-01-20T21:45:54.024Z,6.47
2019-01-20T21:48:20.616Z,6.33
2019-01-20T21:50:47.179Z,7.47
2019-01-20T21:53:13.751Z,6.63
2019-01-20T21:55:40.270Z,5.83
2019-01-20T21:58:07.853Z,5.50
2019-01-20T22:00:34.673Z,5.17
2019-01-20T22:03:01.230Z,6.33
2019-01-20T22:05:27.992Z,6.37
2019-01-20T22:07:57.285Z,6.27
2019-01-20T22:10:24.095Z,6.30
2019-01-20T22:12:53.497Z,5.97
2019-01-20T22:15:20.241Z,5.57
2019-01-20T22:17:47.311Z,6.57
2019-01-20T22:20:14.949Z,7.00
2019-01-20T22:22:41.629Z,6.70
2019-01-20T22:25:08.942Z,5.63
2019-01-20T22:27:35.580Z,5.40
2019-01-20T22:30:02.319Z,4.83
2019-01-20T22:32:29.159Z,4.77
2019-01-20T22:34:55.898Z,5.83
2019-01-20T22:37:22.537Z,5.90
2019-01-20T22:39:49.278Z,5.67
2019-01-20T22:42:15.967Z,6.00
2019-01-20T22:44:42.759Z,5.57
2019-01-20T22:47:09.336Z,5.60
2019-01-20T22:49:35.870Z,5.63
2019-01-20T22:52:02.573Z,5.73
2019-01-20T22:54:29.208Z,4.53
2019-01-20T22:56:55.705Z,4.70
2019-01-20T22:59:22.485Z,5.33
2019-01-20T23:01:49.229Z,5.10
2019-01-20T23:04:15.969Z,5.00
2019-01-20T23:06:42.529Z,5.43
2019-01-20T23:09:08.995Z,5.93
2019-01-20T23:11:35.679Z,5.70
2019-01-20T23:14:02.422Z,5.30
2019-01-20T23:16:29.077Z,5.27
2019-01-20T23:18:55.720Z,5.53
2019-01-20T23:21:22.440Z,5.00
2019-01-20T23:23:49.176Z,5.07
2019-01-20T23:26:15.923Z,5.63
2019-01-20T23:28:42.827Z,5.10
2019-01-20T23:31:09.706Z,4.73
2019-01-20T23:33:36.448Z,5.03
2019-01-20T23:36:03.207Z,4.83
2019-01-20T23:38:29.885Z,5.10
2019-01-20T23:40:56.565Z,4.50
2019-01-20T23:43:23.303Z,4.97
2019-01-20T23:45:50.047Z,5.03
2019-01-20T23:48:16.785Z,5.53
2019-01-20T23:50:43.424Z,5.67
2019-01-20T23:53:10.107Z,5.60
2019-01-20T23:55:36.699Z,4.97
2019-01-20T23:58:04.052Z,6.30
